createdAt,value
2019-02-24T00:01:19.700Z,8.78
2019-02-24T00:02:25.202Z,8.78
2019-02-24T00:03:30.546Z,8.78
2019-02-24T00:04:35.524Z,8.77
2019-02-24T00:05:40.976Z,8.76
2019-02-24T00:06:45.950Z,8.76
2019-02-24T00:07:51.221Z,8.75
2019-02-24T00:08:56.247Z,8.76
2019-02-24T00:10:01.724Z,8.75
2019-02-24T00:11:06.822Z,8.75
2019-02-24T00:12:11.837Z,8.74
2019-02-24T00:13:16.781Z,8.75
2019-02-24T00:14:24.050Z,8.74
2019-02-24T00:15:29.133Z,8.72
2019-02-24T00:16:34.108Z,8.71
2019-02-24T00:17:39.217Z,8.71
2019-02-24T00:18:44.242Z,8.71
2019-02-24T00:19:49.317Z,8.70
2019-02-24T00:20:54.798Z,8.70
2019-02-24T00:22:01.830Z,8.70
2019-02-24T00:23:07.258Z,8.69
2019-02-24T00:24:12.571Z,8.68
2019-02-24T00:25:17.966Z,8.68
2019-02-24T00:26:24.525Z,8.68
2019-02-24T00:27:29.630Z,8.67
2019-02-24T00:28:34.720Z,8.66
2019-02-24T00:29:42.018Z,8.65
2019-02-24T00:30:47.000Z,8.64
2019-02-24T00:31:52.078Z,8.65
2019-02-24T00:32:57.073Z,8.63
2019-02-24T00:34:02.529Z,8.64
2019-02-24T00:35:07.654Z,8.63
2019-02-24T00:36:13.831Z,8.62
2019-02-24T00:37:20.508Z,8.62
2019-02-24T00:38:25.532Z,8.61
2019-02-24T00:39:30.753Z,8.60
2019-02-24T00:40:35.793Z,8.60
2019-02-24T00:41:41.139Z,8.58
2019-02-24T00:42:46.211Z,8.57
2019-02-24T00:43:51.653Z,8.58
2019-02-24T00:44:56.705Z,8.57
2019-02-24T00:46:01.938Z,8.56
2019-02-24T00:47:07.234Z,8.56
2019-02-24T00:48:12.209Z,8.55
2019-02-24T00:49:17.299Z,8.53
2019-02-24T00:50:22.303Z,8.53
2019-02-24T00:51:27.325Z,8.51
2019-02-24T00:52:32.309Z,8.51
2019-02-24T00:53:37.515Z,8.51
2019-02-24T00:54:42.488Z,8.51
2019-02-24T00:55:47.583Z,8.51
2019-02-24T00:56:52.638Z,8.50
2019-02-24T00:57:58.093Z,8.49
2019-02-24T00:59:03.146Z,8.49
2019-02-24T01:00:10.053Z,8.49
2019-02-24T01:01:15.493Z,8.48
2019-02-24T01:02:20.580Z,8.48
2019-02-24T01:03:25.669Z,8.46
2019-02-24T01:04:30.633Z,8.47
2019-02-24T01:05:35.921Z,8.46
2019-02-24T01:06:41.091Z,8.45
2019-02-24T01:07:46.488Z,8.44
2019-02-24T01:08:51.458Z,8.45
2019-02-24T01:09:56.478Z,8.44
2019-02-24T01:11:01.926Z,8.43
2019-02-24T01:12:06.970Z,8.43
2019-02-24T01:13:12.064Z,8.42
2019-02-24T01:14:17.506Z,8.41
2019-02-24T01:15:22.880Z,8.42
2019-02-24T01:16:28.445Z,8.40
2019-02-24T01:17:33.437Z,8.41
2019-02-24T01:18:38.507Z,8.41
2019-02-24T01:19:43.498Z,8.41
2019-02-24T01:20:48.547Z,8.42
2019-02-24T01:21:53.817Z,8.40
2019-02-24T01:22:59.603Z,8.40
2019-02-24T01:24:04.530Z,8.40
2019-02-24T01:25:09.741Z,8.39
2019-02-24T01:26:15.083Z,8.38
2019-02-24T01:27:20.572Z,8.38
2019-02-24T01:28:25.750Z,8.36
2019-02-24T01:29:30.858Z,8.37
2019-02-24T01:30:39.324Z,8.36
2019-02-24T01:31:44.494Z,8.37
2019-02-24T01:32:49.535Z,8.37
2019-02-24T01:33:54.502Z,8.36
2019-02-24T01:34:59.551Z,8.36
2019-02-24T01:36:04.588Z,8.36
2019-02-24T01:37:09.884Z,8.36
2019-02-24T01:38:15.096Z,8.35
2019-02-24T01:39:20.484Z,8.34
2019-02-24T01:40:25.511Z,8.35
2019-02-24T01:41:30.461Z,8.33
2019-02-24T01:42:35.880Z,8.32
2019-02-24T01:43:41.258Z,8.32
2019-02-24T01:44:46.358Z,8.31
2019-02-24T01:45:51.511Z,8.30
2019-02-24T01:46:56.576Z,8.30
2019-02-24T01:48:01.669Z,8.30
2019-02-24T01:49:06.672Z,8.30
2019-02-24T01:50:11.704Z,8.30
2019-02-24T01:51:16.666Z,8.29
2019-02-24T01:52:21.784Z,8.29
2019-02-24T01:53:27.950Z,8.27
2019-02-24T01:54:33.486Z,8.29
2019-02-24T01:55:38.803Z,8.28
2019-02-24T01:56:44.080Z,8.27
2019-02-24T01:57:49.170Z,8.27
2019-02-24T01:58:54.407Z,8.26
2019-02-24T02:00:00.177Z,8.26
2019-02-24T02:01:05.372Z,8.24
2019-02-24T02:02:10.425Z,8.25
2019-02-24T02:03:15.506Z,8.24
2019-02-24T02:04:20.846Z,8.25
2019-02-24T02:05:25.916Z,8.23
2019-02-24T02:06:31.048Z,8.23
2019-02-24T02:07:36.010Z,8.23
2019-02-24T02:08:41.123Z,8.22
2019-02-24T02:09:46.776Z,8.22
2019-02-24T02:10:51.732Z,8.21
2019-02-24T02:11:57.077Z,8.20
2019-02-24T02:13:02.226Z,8.20
2019-02-24T02:14:07.241Z,8.18
2019-02-24T02:15:12.417Z,8.19
2019-02-24T02:16:17.630Z,8.18
2019-02-24T02:17:22.995Z,8.18
2019-02-24T02:18:28.062Z,8.17
2019-02-24T02:19:33.189Z,8.16
2019-02-24T02:20:38.388Z,8.16
2019-02-24T02:21:43.808Z,8.14
2019-02-24T02:22:49.588Z,8.15
2019-02-24T02:23:55.286Z,8.14
2019-02-24T02:25:00.946Z,8.14
2019-02-24T02:26:06.197Z,8.14
2019-02-24T02:27:11.254Z,8.14
2019-02-24T02:28:16.354Z,8.12
2019-02-24T02:29:21.317Z,8.12
2019-02-24T02:30:26.449Z,8.12
2019-02-24T02:31:31.505Z,8.11
2019-02-24T02:32:36.471Z,8.10
2019-02-24T02:33:41.589Z,8.10
2019-02-24T02:34:46.954Z,8.09
2019-02-24T02:35:51.971Z,8.09
2019-02-24T02:36:56.969Z,8.08
2019-02-24T02:38:02.035Z,8.09
2019-02-24T02:39:07.149Z,8.07
2019-02-24T02:40:12.537Z,8.08
2019-02-24T02:41:17.964Z,8.07
2019-02-24T02:42:23.393Z,8.07
2019-02-24T02:43:28.481Z,8.06
2019-02-24T02:44:33.724Z,8.06
2019-02-24T02:45:38.853Z,8.05
2019-02-24T02:46:44.192Z,8.05
2019-02-24T02:47:49.605Z,8.04
2019-02-24T02:48:54.691Z,8.03
2019-02-24T02:50:00.399Z,8.03
2019-02-24T02:51:05.796Z,8.03
2019-02-24T02:52:12.308Z,8.02
2019-02-24T02:53:17.348Z,8.01
2019-02-24T02:54:22.323Z,8.02
2019-02-24T02:55:27.364Z,8.01
2019-02-24T02:56:32.514Z,8.01
2019-02-24T02:57:37.593Z,8.01
2019-02-24T02:58:42.655Z,8.00
2019-02-24T02:59:48.148Z,8.00
2019-02-24T03:00:53.885Z,8.00
2019-02-24T03:01:59.297Z,8.00
2019-02-24T03:03:04.736Z,8.00
2019-02-24T03:04:09.809Z,7.98
2019-02-24T03:05:14.802Z,7.99
2019-02-24T03:06:28.033Z,7.99
2019-02-24T03:07:42.714Z,7.98
2019-02-24T03:08:49.214Z,7.97
2019-02-24T03:09:54.198Z,7.96
2019-02-24T03:11:01.100Z,7.95
2019-02-24T03:12:07.004Z,7.96
2019-02-24T03:13:12.441Z,7.94
2019-02-24T03:14:17.690Z,7.94
2019-02-24T03:15:22.995Z,7.94
2019-02-24T03:16:29.673Z,7.94
2019-02-24T03:17:34.755Z,7.94
2019-02-24T03:18:39.734Z,7.94
2019-02-24T03:19:45.397Z,7.93
2019-02-24T03:20:50.361Z,7.93
2019-02-24T03:21:55.610Z,7.93
2019-02-24T03:23:00.747Z,7.92
2019-02-24T03:24:06.141Z,7.92
2019-02-24T03:25:11.439Z,7.90
2019-02-24T03:26:16.456Z,7.90
2019-02-24T03:27:21.413Z,7.89
2019-02-24T03:28:26.455Z,7.88
2019-02-24T03:29:31.456Z,7.88
2019-02-24T03:30:36.493Z,7.88
2019-02-24T03:31:41.518Z,7.88
2019-02-24T03:32:46.445Z,7.88
2019-02-24T03:33:51.405Z,7.87
2019-02-24T03:34:56.414Z,7.87
2019-02-24T03:36:01.416Z,7.88
2019-02-24T03:37:06.471Z,7.88
2019-02-24T03:38:11.654Z,7.88
2019-02-24T03:39:16.776Z,7.88
2019-02-24T03:40:22.208Z,7.88
2019-02-24T03:41:27.478Z,7.88
2019-02-24T03:42:32.559Z,7.86
2019-02-24T03:43:37.773Z,7.88
2019-02-24T03:44:42.741Z,7.85
2019-02-24T03:45:48.323Z,7.86
2019-02-24T03:46:53.371Z,7.86
2019-02-24T03:47:58.601Z,7.85
2019-02-24T03:49:03.629Z,7.84
2019-02-24T03:50:08.914Z,7.84
2019-02-24T03:51:14.017Z,7.84
2019-02-24T03:52:19.435Z,7.85
2019-02-24T03:53:24.556Z,7.84
2019-02-24T03:54:29.700Z,7.84
2019-02-24T03:55:35.215Z,7.83
2019-02-24T03:56:40.246Z,7.83
2019-02-24T03:57:45.533Z,7.82
2019-02-24T03:58:50.596Z,7.82
2019-02-24T03:59:55.991Z,7.81
2019-02-24T04:01:00.984Z,7.82
2019-02-24T04:02:06.048Z,7.82
2019-02-24T04:03:11.345Z,7.81
2019-02-24T04:04:16.738Z,7.81
2019-02-24T04:05:21.829Z,7.80
2019-02-24T04:06:26.906Z,7.80
2019-02-24T04:07:32.418Z,7.79
2019-02-24T04:08:37.738Z,7.78
2019-02-24T04:09:42.796Z,7.77
2019-02-24T04:10:47.779Z,7.77
2019-02-24T04:11:52.786Z,7.77
2019-02-24T04:12:57.767Z,7.77
2019-02-24T04:14:03.128Z,7.76
2019-02-24T04:15:08.263Z,7.75
2019-02-24T04:16:13.656Z,7.75
2019-02-24T04:17:18.696Z,7.75
2019-02-24T04:18:24.084Z,7.75
2019-02-24T04:19:29.919Z,7.74
2019-02-24T04:20:35.414Z,7.74
2019-02-24T04:21:40.716Z,7.73
2019-02-24T04:22:45.760Z,7.73
2019-02-24T04:23:50.722Z,7.74
2019-02-24T04:24:55.748Z,7.73
2019-02-24T04:26:00.955Z,7.72
2019-02-24T04:27:06.381Z,7.72
2019-02-24T04:28:11.754Z,7.73
2019-02-24T04:29:24.559Z,7.71
2019-02-24T04:30:23.901Z,7.71
2019-02-24T04:31:28.948Z,7.72
2019-02-24T04:32:34.290Z,7.69
2019-02-24T04:33:39.576Z,7.69
2019-02-24T04:34:44.536Z,7.68
2019-02-24T04:35:49.489Z,7.68
2019-02-24T04:36:54.971Z,7.68
2019-02-24T04:38:00.534Z,7.66
2019-02-24T04:39:06.122Z,7.66
2019-02-24T04:40:11.260Z,7.66
2019-02-24T04:41:16.355Z,7.67
2019-02-24T04:42:21.703Z,7.65
2019-02-24T04:43:26.656Z,7.65
2019-02-24T04:44:31.680Z,7.64
2019-02-24T04:45:36.836Z,7.66
2019-02-24T04:46:41.796Z,7.64
2019-02-24T04:47:46.822Z,7.63
2019-02-24T04:48:52.255Z,7.64
2019-02-24T04:49:57.313Z,7.63
2019-02-24T04:51:02.362Z,7.63
2019-02-24T04:52:07.397Z,7.62
2019-02-24T04:53:12.764Z,7.61
2019-02-24T04:54:18.401Z,7.62
2019-02-24T04:55:23.486Z,7.61
2019-02-24T04:56:28.572Z,7.61
2019-02-24T04:57:33.516Z,7.61
2019-02-24T04:58:38.745Z,7.60
2019-02-24T04:59:44.076Z,7.60
2019-02-24T05:00:49.168Z,7.60
2019-02-24T05:01:54.315Z,7.60
2019-02-24T05:02:59.542Z,7.59
2019-02-24T05:04:04.642Z,7.58
2019-02-24T05:05:09.774Z,7.58
2019-02-24T05:06:14.770Z,7.57
2019-02-24T05:07:19.879Z,7.57
2019-02-24T05:08:24.873Z,7.57
2019-02-24T05:09:30.035Z,7.57
2019-02-24T05:10:35.044Z,7.56
2019-02-24T05:11:40.119Z,7.55
2019-02-24T05:12:45.491Z,7.55
2019-02-24T05:13:50.902Z,7.54
2019-02-24T05:14:55.878Z,7.54
2019-02-24T05:16:03.928Z,7.53
2019-02-24T05:17:08.911Z,7.53
2019-02-24T05:18:14.263Z,7.53
2019-02-24T05:19:19.667Z,7.52
2019-02-24T05:20:24.637Z,7.52
2019-02-24T05:21:29.617Z,7.51
2019-02-24T05:22:34.573Z,7.51
2019-02-24T05:23:39.998Z,7.49
2019-02-24T05:24:44.966Z,7.50
2019-02-24T05:25:50.044Z,7.50
2019-02-24T05:26:55.705Z,7.50
2019-02-24T05:28:00.726Z,7.50
2019-02-24T05:29:05.682Z,7.49
2019-02-24T05:30:10.777Z,7.50
2019-02-24T05:31:16.142Z,7.49
2019-02-24T05:32:21.126Z,7.49
2019-02-24T05:33:26.697Z,7.49
2019-02-24T05:34:31.793Z,7.49
2019-02-24T05:35:37.398Z,7.49
2019-02-24T05:36:42.336Z,7.50
2019-02-24T05:37:47.402Z,7.49
2019-02-24T05:38:52.429Z,7.50
2019-02-24T05:39:57.490Z,7.50
2019-02-24T05:41:02.463Z,7.49
2019-02-24T05:42:07.549Z,7.49
2019-02-24T05:43:12.595Z,7.49
2019-02-24T05:44:17.735Z,7.49
2019-02-24T05:45:23.040Z,7.48
2019-02-24T05:46:28.027Z,7.48
2019-02-24T05:47:33.501Z,7.48
2019-02-24T05:48:38.992Z,7.49
2019-02-24T05:49:43.969Z,7.48
2019-02-24T05:50:49.519Z,7.47
2019-02-24T05:51:54.552Z,7.48
2019-02-24T05:52:59.648Z,7.48
2019-02-24T05:54:04.824Z,7.48
2019-02-24T05:55:10.194Z,7.48
2019-02-24T05:56:15.403Z,7.48
2019-02-24T05:57:20.434Z,7.47
2019-02-24T05:58:25.479Z,7.47
2019-02-24T05:59:30.810Z,7.46
2019-02-24T06:00:35.825Z,7.46
2019-02-24T06:01:40.870Z,7.45
2019-02-24T06:02:45.982Z,7.46
2019-02-24T06:03:51.071Z,7.45
2019-02-24T06:04:56.033Z,7.43
2019-02-24T06:06:01.079Z,7.43
2019-02-24T06:07:06.053Z,7.42
2019-02-24T06:08:10.982Z,7.42
2019-02-24T06:09:16.225Z,7.42
2019-02-24T06:10:21.660Z,7.41
2019-02-24T06:11:26.719Z,7.41
2019-02-24T06:12:31.794Z,7.41
2019-02-24T06:13:36.782Z,7.40
2019-02-24T06:14:41.831Z,7.40
2019-02-24T06:15:46.899Z,7.41
2019-02-24T06:16:52.244Z,7.41
2019-02-24T06:17:57.274Z,7.41
2019-02-24T06:19:02.409Z,7.41
2019-02-24T06:20:07.587Z,7.41
2019-02-24T06:21:12.573Z,7.42
2019-02-24T06:22:17.539Z,7.42
2019-02-24T06:23:22.572Z,7.42
2019-02-24T06:24:30.584Z,7.42
2019-02-24T06:25:35.675Z,7.41
2019-02-24T06:26:40.626Z,7.40
2019-02-24T06:27:45.657Z,7.41
2019-02-24T06:28:51.989Z,7.40
2019-02-24T06:30:04.525Z,7.42
2019-02-24T06:31:04.352Z,7.41
2019-02-24T06:32:09.809Z,7.40
2019-02-24T06:33:15.141Z,7.41
2019-02-24T06:34:20.443Z,7.41
2019-02-24T06:35:25.538Z,7.41
2019-02-24T06:36:30.519Z,7.39
2019-02-24T06:37:35.743Z,7.39
2019-02-24T06:38:41.102Z,7.39
2019-02-24T06:39:46.277Z,7.39
2019-02-24T06:40:51.671Z,7.39
2019-02-24T06:41:56.651Z,7.40
2019-02-24T06:43:01.692Z,7.38
2019-02-24T06:44:06.769Z,7.41
2019-02-24T06:45:12.232Z,7.40
2019-02-24T06:46:17.243Z,7.40
2019-02-24T06:47:22.293Z,7.40
2019-02-24T06:48:27.274Z,7.40
2019-02-24T06:49:32.820Z,7.40
2019-02-24T06:51:09.146Z,7.40
2019-02-24T06:52:14.176Z,7.41
2019-02-24T06:53:19.238Z,7.41
2019-02-24T06:54:24.310Z,7.41
2019-02-24T06:55:29.358Z,7.39
2019-02-24T06:56:34.396Z,7.41
2019-02-24T06:57:39.413Z,7.41
2019-02-24T06:58:44.735Z,7.41
2019-02-24T06:59:49.695Z,7.42
2019-02-24T07:00:55.117Z,7.43
2019-02-24T07:02:00.299Z,7.44
2019-02-24T07:03:05.403Z,7.44
2019-02-24T07:04:10.826Z,7.45
2019-02-24T07:05:16.498Z,7.46
2019-02-24T07:06:21.571Z,7.47
2019-02-24T07:07:27.143Z,7.48
2019-02-24T07:08:32.155Z,7.48
2019-02-24T07:09:37.537Z,7.49
2019-02-24T07:10:42.711Z,7.50
2019-02-24T07:11:47.709Z,7.50
2019-02-24T07:12:52.797Z,7.52
2019-02-24T07:13:57.930Z,7.51
2019-02-24T07:15:03.123Z,7.53
2019-02-24T07:16:08.160Z,7.53
2019-02-24T07:17:13.217Z,7.53
2019-02-24T07:18:18.327Z,7.53
2019-02-24T07:19:23.736Z,7.54
2019-02-24T07:20:28.763Z,7.53
2019-02-24T07:21:33.981Z,7.55
2019-02-24T07:22:39.385Z,7.55
2019-02-24T07:23:44.920Z,7.55
2019-02-24T07:24:50.367Z,7.56
2019-02-24T07:25:55.748Z,7.56
2019-02-24T07:27:01.040Z,7.58
2019-02-24T07:28:06.151Z,7.59
2019-02-24T07:29:11.347Z,7.60
2019-02-24T07:30:23.199Z,7.62
2019-02-24T07:31:23.256Z,7.61
2019-02-24T07:32:28.486Z,7.63
2019-02-24T07:33:33.541Z,7.63
2019-02-24T07:34:38.980Z,7.64
2019-02-24T07:35:44.100Z,7.64
2019-02-24T07:36:49.389Z,7.64
2019-02-24T07:37:54.446Z,7.63
2019-02-24T07:38:59.421Z,7.66
2019-02-24T07:40:04.904Z,7.65
2019-02-24T07:41:10.635Z,7.67
2019-02-24T07:42:16.054Z,7.69
2019-02-24T07:43:21.448Z,7.69
2019-02-24T07:44:26.577Z,7.69
2019-02-24T07:45:31.702Z,7.69
2019-02-24T07:46:37.144Z,7.70
2019-02-24T07:47:43.155Z,7.71
2019-02-24T07:48:48.249Z,7.73
2019-02-24T07:49:53.958Z,7.73
2019-02-24T07:50:59.583Z,7.75
2019-02-24T07:52:04.731Z,7.77
2019-02-24T07:53:10.220Z,7.77
2019-02-24T07:54:15.321Z,7.78
2019-02-24T07:55:21.628Z,7.79
2019-02-24T07:56:27.120Z,7.81
2019-02-24T07:57:32.169Z,7.82
2019-02-24T07:58:37.474Z,7.83
2019-02-24T07:59:43.483Z,7.84
2019-02-24T08:00:49.070Z,7.86
2019-02-24T08:01:55.169Z,7.88
2019-02-24T08:03:00.222Z,7.90
2019-02-24T08:04:05.564Z,7.92
2019-02-24T08:05:10.832Z,7.94
2019-02-24T08:06:16.254Z,7.95
2019-02-24T08:07:23.604Z,7.96
2019-02-24T08:08:29.963Z,7.98
2019-02-24T08:09:35.294Z,8.00
2019-02-24T08:10:40.700Z,8.02
2019-02-24T08:11:45.670Z,8.04
2019-02-24T08:12:50.694Z,8.04
2019-02-24T08:13:55.821Z,8.06
2019-02-24T08:15:00.857Z,8.08
2019-02-24T08:16:05.982Z,8.10
2019-02-24T08:17:11.040Z,8.11
2019-02-24T08:18:16.100Z,8.14
2019-02-24T08:19:21.123Z,8.15
2019-02-24T08:20:26.418Z,8.17
2019-02-24T08:21:31.532Z,8.17
2019-02-24T08:22:36.719Z,8.19
2019-02-24T08:23:42.085Z,8.21
2019-02-24T08:24:47.099Z,8.22
2019-02-24T08:25:52.089Z,8.24
2019-02-24T08:26:57.055Z,8.27
2019-02-24T08:28:02.124Z,8.28
2019-02-24T08:29:07.296Z,8.29
2019-02-24T08:30:12.447Z,8.29
2019-02-24T08:31:17.568Z,8.31
2019-02-24T08:32:22.733Z,8.33
2019-02-24T08:33:27.749Z,8.34
2019-02-24T08:34:32.807Z,8.36
2019-02-24T08:35:37.817Z,8.38
2019-02-24T08:36:42.993Z,8.38
2019-02-24T08:37:48.720Z,8.41
2019-02-24T08:38:54.711Z,8.42
2019-02-24T08:40:01.411Z,8.45
2019-02-24T08:41:08.146Z,8.45
2019-02-24T08:42:15.345Z,8.47
2019-02-24T08:43:24.340Z,8.49
2019-02-24T08:44:29.728Z,8.50
2019-02-24T08:45:35.342Z,8.52
2019-02-24T08:46:40.667Z,8.54
2019-02-24T08:47:46.262Z,8.57
2019-02-24T08:48:51.445Z,8.58
2019-02-24T08:49:57.145Z,8.60
2019-02-24T08:51:02.634Z,8.62
2019-02-24T08:52:08.260Z,8.64
2019-02-24T08:53:13.938Z,8.67
2019-02-24T08:54:19.277Z,8.68
2019-02-24T08:55:24.852Z,8.70
2019-02-24T08:56:30.496Z,8.72
2019-02-24T08:57:35.597Z,8.73
2019-02-24T08:58:41.482Z,8.75
2019-02-24T08:59:47.199Z,8.77
2019-02-24T09:00:52.341Z,8.78
2019-02-24T09:01:57.400Z,8.80
2019-02-24T09:03:02.739Z,8.82
2019-02-24T09:04:07.848Z,8.84
2019-02-24T09:05:13.210Z,8.84
2019-02-24T09:06:18.292Z,8.86
2019-02-24T09:07:23.606Z,8.88
2019-02-24T09:08:29.040Z,8.92
2019-02-24T09:09:34.075Z,8.94
2019-02-24T09:10:39.519Z,8.95
2019-02-24T09:11:44.560Z,8.97
2019-02-24T09:12:49.680Z,8.98
2019-02-24T09:13:55.911Z,9.00
2019-02-24T09:15:01.837Z,9.01
2019-02-24T09:16:07.134Z,9.02
2019-02-24T09:17:16.200Z,9.04
2019-02-24T09:18:23.238Z,9.06
2019-02-24T09:19:28.765Z,9.07
2019-02-24T09:20:34.643Z,9.09
2019-02-24T09:21:40.195Z,9.11
2019-02-24T09:22:45.749Z,9.12
2019-02-24T09:23:52.012Z,9.13
2019-02-24T09:24:57.715Z,9.16
2019-02-24T09:26:03.067Z,9.17
2019-02-24T09:27:08.713Z,9.19
2019-02-24T09:28:15.363Z,9.21
2019-02-24T09:29:23.034Z,9.23
2019-02-24T09:30:28.083Z,9.24
2019-02-24T09:31:33.687Z,9.27
2019-02-24T09:32:39.327Z,9.28
2019-02-24T09:33:44.879Z,9.31
2019-02-24T09:34:52.699Z,9.33
2019-02-24T09:35:58.514Z,9.35
2019-02-24T09:37:04.264Z,9.37
2019-02-24T09:38:09.588Z,9.39
2019-02-24T09:39:16.265Z,9.40
2019-02-24T09:40:22.245Z,9.43
2019-02-24T09:41:28.269Z,9.45
2019-02-24T09:42:33.688Z,9.46
2019-02-24T09:43:39.104Z,9.47
2019-02-24T09:44:44.333Z,9.49
2019-02-24T09:45:50.282Z,9.51
2019-02-24T09:46:55.388Z,9.53
2019-02-24T09:48:00.446Z,9.56
2019-02-24T09:49:05.992Z,9.56
2019-02-24T09:50:11.481Z,9.58
2019-02-24T09:51:16.467Z,9.60
2019-02-24T09:52:22.207Z,9.63
2019-02-24T09:53:27.535Z,9.65
2019-02-24T09:54:32.875Z,9.67
2019-02-24T09:55:39.737Z,9.69
2019-02-24T09:56:45.429Z,9.71
2019-02-24T09:57:50.488Z,9.72
2019-02-24T09:58:55.539Z,9.75
2019-02-24T10:00:00.594Z,9.76
2019-02-24T10:01:10.787Z,9.78
2019-02-24T10:02:12.524Z,9.80
2019-02-24T10:03:17.662Z,9.83
2019-02-24T10:04:23.326Z,9.85
2019-02-24T10:05:28.709Z,9.88
2019-02-24T10:06:34.345Z,9.89
2019-02-24T10:07:39.558Z,9.91
2019-02-24T10:08:44.582Z,9.93
2019-02-24T10:09:50.238Z,9.96
2019-02-24T10:10:55.185Z,9.97
2019-02-24T10:12:01.062Z,10.00
2019-02-24T10:13:06.403Z,10.01
2019-02-24T10:14:12.717Z,10.03
2019-02-24T10:15:17.878Z,10.04
2019-02-24T10:16:23.345Z,10.07
2019-02-24T10:17:28.533Z,10.08
2019-02-24T10:18:33.488Z,10.10
2019-02-24T10:19:39.359Z,10.11
2019-02-24T10:20:44.503Z,10.14
2019-02-24T10:21:49.876Z,10.15
2019-02-24T10:22:55.231Z,10.18
2019-02-24T10:24:00.301Z,10.19
2019-02-24T10:25:06.128Z,10.23
2019-02-24T10:26:11.826Z,10.24
2019-02-24T10:27:17.583Z,10.27
2019-02-24T10:28:22.934Z,10.27
2019-02-24T10:29:28.039Z,10.29
2019-02-24T10:30:33.541Z,10.31
2019-02-24T10:31:38.655Z,10.32
2019-02-24T10:32:43.947Z,10.34
2019-02-24T10:33:49.443Z,10.36
2019-02-24T10:34:55.092Z,10.39
2019-02-24T10:36:00.141Z,10.40
2019-02-24T10:37:05.315Z,10.43
2019-02-24T10:38:10.517Z,10.45
2019-02-24T10:39:15.731Z,10.47
2019-02-24T10:40:21.119Z,10.49
2019-02-24T10:41:26.283Z,10.52
2019-02-24T10:42:31.301Z,10.53
2019-02-24T10:43:36.834Z,10.56
2019-02-24T10:44:42.144Z,10.56
2019-02-24T10:45:47.527Z,10.59
2019-02-24T10:46:53.205Z,10.60
2019-02-24T10:47:58.540Z,10.62
2019-02-24T10:49:03.820Z,10.64
2019-02-24T10:50:11.414Z,10.66
2019-02-24T10:51:16.775Z,10.69
2019-02-24T10:52:21.858Z,10.73
2019-02-24T10:53:28.265Z,10.76
2019-02-24T10:54:34.124Z,10.75
2019-02-24T10:55:39.441Z,10.83
2019-02-24T10:56:48.224Z,10.83
2019-02-24T10:57:53.216Z,10.85
2019-02-24T10:58:58.333Z,10.87
2019-02-24T11:00:04.060Z,10.81
2019-02-24T11:01:11.112Z,10.89
2019-02-24T11:02:16.207Z,10.91
2019-02-24T11:03:21.916Z,10.94
2019-02-24T11:04:27.481Z,10.97
2019-02-24T11:05:33.182Z,10.99
2019-02-24T11:06:38.062Z,11.01
2019-02-24T11:07:43.320Z,11.03
2019-02-24T11:08:50.101Z,11.04
2019-02-24T11:09:55.193Z,11.05
2019-02-24T11:11:00.826Z,11.01
2019-02-24T11:12:05.963Z,11.07
2019-02-24T11:13:11.916Z,11.08
2019-02-24T11:14:17.015Z,11.09
2019-02-24T11:15:22.079Z,11.12
2019-02-24T11:16:27.199Z,11.16
2019-02-24T11:17:32.256Z,11.16
2019-02-24T11:18:37.317Z,11.19
2019-02-24T11:19:42.396Z,11.21
2019-02-24T11:20:47.522Z,11.26
2019-02-24T11:21:52.550Z,11.27
2019-02-24T11:22:57.587Z,11.29
2019-02-24T11:24:02.770Z,11.31
2019-02-24T11:25:08.607Z,11.33
2019-02-24T11:26:13.667Z,11.34
2019-02-24T11:27:18.972Z,11.35
2019-02-24T11:28:24.375Z,11.36
2019-02-24T11:29:29.568Z,11.36
2019-02-24T11:30:34.619Z,11.37
2019-02-24T11:31:39.987Z,11.38
2019-02-24T11:32:45.100Z,11.39
2019-02-24T11:33:50.147Z,11.41
2019-02-24T11:34:55.126Z,11.42
2019-02-24T11:36:00.188Z,11.44
2019-02-24T11:37:05.232Z,11.47
2019-02-24T11:38:10.591Z,11.50
2019-02-24T11:39:16.015Z,11.52
2019-02-24T11:40:20.938Z,11.55
2019-02-24T11:41:26.049Z,11.57
2019-02-24T11:42:31.646Z,11.60
2019-02-24T11:43:36.649Z,11.61
2019-02-24T11:44:41.598Z,11.62
2019-02-24T11:45:46.971Z,11.63
2019-02-24T11:46:52.396Z,11.64
2019-02-24T11:47:58.129Z,11.68
2019-02-24T11:49:03.529Z,11.68
2019-02-24T11:50:08.822Z,11.69
2019-02-24T11:51:13.877Z,11.72
2019-02-24T11:52:18.829Z,11.73
2019-02-24T11:53:24.245Z,11.76
2019-02-24T11:54:29.246Z,11.76
2019-02-24T11:55:34.391Z,11.80
2019-02-24T11:56:39.357Z,11.81
2019-02-24T11:57:44.563Z,11.82
2019-02-24T11:58:49.642Z,11.83
2019-02-24T11:59:54.569Z,11.85
2019-02-24T12:00:59.654Z,11.88
2019-02-24T12:02:04.770Z,11.90
2019-02-24T12:03:09.862Z,11.91
2019-02-24T12:04:14.947Z,11.93
2019-02-24T12:05:19.966Z,11.95
2019-02-24T12:06:24.997Z,11.97
2019-02-24T12:07:29.950Z,11.98
2019-02-24T12:08:36.311Z,12.02
2019-02-24T12:09:41.810Z,12.06
2019-02-24T12:10:47.950Z,12.08
2019-02-24T12:11:53.498Z,12.10
2019-02-24T12:12:58.557Z,12.11
2019-02-24T12:14:03.728Z,12.13
2019-02-24T12:15:09.605Z,12.15
2019-02-24T12:16:15.353Z,12.17
2019-02-24T12:17:20.402Z,12.19
2019-02-24T12:18:25.899Z,12.21
2019-02-24T12:19:30.865Z,12.24
2019-02-24T12:20:35.954Z,12.25
2019-02-24T12:21:41.283Z,12.26
2019-02-24T12:22:46.721Z,12.28
2019-02-24T12:23:51.837Z,12.31
2019-02-24T12:24:56.965Z,12.32
2019-02-24T12:26:02.342Z,12.33
2019-02-24T12:27:07.490Z,12.34
2019-02-24T12:28:12.502Z,12.34
2019-02-24T12:29:17.955Z,12.34
2019-02-24T12:30:23.391Z,12.34
2019-02-24T12:31:28.394Z,12.34
2019-02-24T12:32:33.376Z,12.34
2019-02-24T12:33:39.134Z,12.35
2019-02-24T12:34:44.563Z,12.36
2019-02-24T12:35:49.998Z,12.36
2019-02-24T12:36:55.827Z,12.39
2019-02-24T12:38:02.966Z,12.40
2019-02-24T12:39:08.504Z,12.41
2019-02-24T12:40:14.023Z,12.45
2019-02-24T12:41:19.111Z,12.46
2019-02-24T12:42:24.385Z,12.50
2019-02-24T12:43:29.464Z,12.52
2019-02-24T12:44:34.468Z,12.55
2019-02-24T12:45:39.560Z,12.58
2019-02-24T12:46:44.824Z,12.60
2019-02-24T12:47:50.231Z,12.61
2019-02-24T12:48:55.294Z,12.63
2019-02-24T12:50:03.320Z,12.66
2019-02-24T12:51:07.701Z,12.68
2019-02-24T12:52:12.972Z,12.70
2019-02-24T12:53:18.661Z,12.72
2019-02-24T12:54:23.873Z,12.74
2019-02-24T12:55:29.313Z,12.77
2019-02-24T12:56:34.434Z,12.77
2019-02-24T12:57:39.977Z,12.80
2019-02-24T12:58:45.066Z,12.81
2019-02-24T12:59:50.290Z,12.83
2019-02-24T13:00:55.953Z,12.85
2019-02-24T13:02:05.712Z,12.88
2019-02-24T13:03:08.205Z,12.89
2019-02-24T13:04:13.361Z,12.93
2019-02-24T13:05:18.964Z,12.94
2019-02-24T13:06:24.622Z,12.95
2019-02-24T13:07:29.632Z,12.98
2019-02-24T13:08:34.590Z,12.99
2019-02-24T13:09:39.753Z,12.99
2019-02-24T13:10:45.027Z,13.00
2019-02-24T13:11:50.164Z,13.01
2019-02-24T13:12:55.579Z,13.00
2019-02-24T13:14:00.889Z,13.01
2019-02-24T13:15:06.339Z,13.02
2019-02-24T13:16:11.736Z,13.05
2019-02-24T13:17:18.698Z,13.09
2019-02-24T13:18:23.743Z,13.12
2019-02-24T13:19:29.628Z,13.14
2019-02-24T13:20:34.813Z,13.16
2019-02-24T13:21:39.909Z,13.19
2019-02-24T13:22:45.098Z,13.22
2019-02-24T13:23:50.399Z,13.22
2019-02-24T13:24:55.763Z,13.23
2019-02-24T13:26:00.798Z,13.24
2019-02-24T13:27:05.953Z,13.25
2019-02-24T13:28:10.937Z,13.26
2019-02-24T13:29:16.015Z,13.27
2019-02-24T13:30:21.157Z,13.27
2019-02-24T13:31:26.214Z,13.28
2019-02-24T13:32:31.335Z,13.30
2019-02-24T13:33:36.402Z,13.31
2019-02-24T13:34:41.735Z,13.34
2019-02-24T13:35:46.897Z,13.36
2019-02-24T13:36:51.998Z,13.38
2019-02-24T13:37:57.494Z,13.39
2019-02-24T13:39:02.583Z,13.40
2019-02-24T13:40:08.278Z,13.40
2019-02-24T13:41:13.426Z,13.42
2019-02-24T13:42:18.794Z,13.45
2019-02-24T13:43:23.795Z,13.46
2019-02-24T13:44:28.842Z,13.48
2019-02-24T13:45:33.930Z,13.50
2019-02-24T13:46:39.188Z,13.51
2019-02-24T13:47:44.548Z,13.55
2019-02-24T13:48:49.683Z,13.58
2019-02-24T13:49:55.055Z,13.60
2019-02-24T13:51:00.889Z,13.61
2019-02-24T13:52:06.009Z,13.61
2019-02-24T13:53:11.349Z,13.62
2019-02-24T13:54:16.906Z,13.63
2019-02-24T13:55:21.988Z,13.62
2019-02-24T13:56:27.100Z,13.62
2019-02-24T13:57:32.151Z,13.63
2019-02-24T13:58:37.879Z,13.61
2019-02-24T13:59:43.319Z,13.62
2019-02-24T14:00:48.619Z,13.64
2019-02-24T14:01:53.769Z,13.67
2019-02-24T14:02:58.848Z,13.70
2019-02-24T14:04:03.929Z,13.72
2019-02-24T14:05:10.756Z,13.73
2019-02-24T14:06:16.231Z,13.73
2019-02-24T14:07:21.531Z,13.72
2019-02-24T14:08:27.736Z,13.72
2019-02-24T14:09:33.157Z,13.73
2019-02-24T14:10:38.248Z,13.73
2019-02-24T14:11:43.317Z,13.74
2019-02-24T14:12:48.611Z,13.74
2019-02-24T14:13:54.285Z,13.74
2019-02-24T14:14:59.312Z,13.75
2019-02-24T14:16:04.660Z,13.75
2019-02-24T14:17:10.077Z,13.77
2019-02-24T14:18:16.321Z,13.78
2019-02-24T14:19:21.477Z,13.80
2019-02-24T14:20:26.592Z,13.80
2019-02-24T14:21:31.684Z,13.80
2019-02-24T14:22:37.447Z,13.81